• Join FlightAware (Why Join?)
  • Login
  • US Flag 
02:09AM EDT


 

Airport Tracker/Info


-or-


 

Live Flight TrackerFlight Track Log ✈ DAL863 ✈ 23-Apr-2013 ✈ KJFK - KLAX

Flight Track Log - Related Links

Times and Time Zones

All times are in EDT time to prevent confusion due to time zone crossing. See the DAL863 flight status page for this flight to view local times or setup timezone preferences in your user account.

Time Position Orientation Groundspeed Altitude Reporting Facility
EDT Latitude Longitude Course Direction KTS MPH feet Rate Location/Type
12:15PM 40.6460 -73.7670 32° Northeast 156 180 400  Level FlightAware
12:16PM 40.6630 -73.7510 36° Northeast 157 181 1,600 1,980 Climbing FlightAware
12:16PM 40.6660 -73.7360 75° East 183 211 1,900 1,620 Climbing FlightAware
12:16PM 40.6680 -73.7060 85° East 200 230 2,700 1,620 Climbing FlightAware
12:17PM 40.6690 -73.6870 86° East 224 258 3,000 1,560 Climbing FlightAware
12:17PM 40.6730 -73.6650 77° East 241 277 3,500 2,580 Climbing FlightAware
12:17PM 40.6840 -73.6470 51° Northeast 245 282 4,300 2,700 Climbing FlightAware
12:17PM 40.7040 -73.6210 45° Northeast 256 295 5,300 2,580 Climbing FlightAware
12:18PM 40.7300 -73.5880 44° Northeast 263 303 6,700 2,640 Climbing FlightAware
12:18PM 40.7420 -73.5720 45° Northeast 266 306 7,300 2,700 Climbing FlightAware
12:19PM 40.7650 -73.5430 44° Northeast 271 312 8,500 2,520 Climbing FlightAware
12:19PM 40.7780 -73.5260 45° Northeast 276 318 9,000 1,860 Climbing FlightAware
12:20PM 40.8280 -73.4850 32° Northeast 296 341 10,400 1,500 Climbing FlightAware
12:20PM 40.8600 -73.5000 340° North 319 367 10,800 900 Climbing FlightAware
12:20PM 40.8770 -73.5210 317° Northwest 336 387 11,000 1,080 Climbing FlightAware
12:21PM 40.9200 -73.5900 310° West 372 428 11,800 1,860 Climbing FlightAware
12:22PM 40.9700 -73.6670 311° West 376 433 13,700 2,400 Climbing FlightAware
12:22PM 41.0066 -73.7242 310° West 384 442 14,800 2,040 Climbing FlightAware ADS-B
12:23PM 41.0445 -73.7836 310° West 391 450 15,900 1,680 Climbing FlightAware ADS-B
12:23PM 41.0804 -73.8401 310° West 400 460 16,600 720 Climbing FlightAware ADS-B
12:24PM 41.1107 -73.8878 310° West 402 463 16,600  Level FlightAware ADS-B
12:24PM 41.1168 -73.8974 310° West 402 463 16,600  Level FlightAware ADS-B
12:24PM 41.1532 -73.9548 310° West 398 458 16,600 180 Level FlightAware ADS-B
12:25PM 41.1897 -74.0125 310° West 394 453 16,800 540 Climbing FlightAware ADS-B
12:25PM 41.2252 -74.0687 310° West 399 459 17,200 720 Climbing FlightAware ADS-B
12:26PM 41.2670 -74.1347 310° West 407 468 17,600 660 Climbing FlightAware ADS-B
12:26PM 41.3090 -74.2012 310° West 405 466 18,000 660 Climbing FlightAware ADS-B
12:27PM 41.3473 -74.2622 310° West 405 466 18,400 1,200 Climbing FlightAware ADS-B
12:27PM 41.3839 -74.3206 310° West 406 467 19,300 1,680 Climbing FlightAware ADS-B
12:28PM 41.4008 -74.3498 308° West 408 470 19,700 1,680 Climbing FlightAware ADS-B
12:28PM 41.4189 -74.3857 304° West 410 472 20,200 1,560 Climbing FlightAware ADS-B
12:29PM 41.4498 -74.4552 301° West 416 479 21,000 1,560 Climbing FlightAware ADS-B
12:29PM 41.4804 -74.5267 300° West 422 486 21,900 1,680 Climbing FlightAware ADS-B
12:30PM 41.5119 -74.6002 300° West 424 488 22,800 1,500 Climbing FlightAware ADS-B
12:30PM 41.5370 -74.6580 300° West 426 490 23,500 1,500 Climbing FlightAware
12:30PM 41.5419 -74.6699 299° West 428 493 23,600 1,740 Climbing FlightAware ADS-B
12:31PM 41.5719 -74.7398 300° West 430 495 24,400 1,440 Climbing FlightAware ADS-B
12:31PM 41.6022 -74.8103 300° West 433 498 25,100 1,260 Climbing FlightAware ADS-B
12:32PM 41.6366 -74.8906 300° West 439 505 25,800 1,020 Climbing FlightAware ADS-B
12:32PM 41.6695 -74.9679 300° West 446 513 26,300 1,680 Climbing FlightAware ADS-B
12:33PM 41.7008 -75.0411 300° West 437 503 27,600 1,980 Climbing FlightAware ADS-B
12:33PM 41.7328 -75.1165 300° West 433 498 28,400 1,260 Climbing FlightAware ADS-B
12:34PM 41.7618 -75.1853 299° West 438 504 28,900 780 Climbing FlightAware ADS-B
12:34PM 41.7983 -75.2716 300° West 443 510 29,300 720 Climbing FlightAware ADS-B
12:35PM 41.8406 -75.3726 299° West 455 524 29,900 840 Climbing FlightAware ADS-B
12:38PM 41.9860 -75.7210 299° West 469 540 32,100 900 Climbing FlightAware
12:38PM 42.0270 -75.8200 299° West 470 541 32,700 960 Climbing FlightAware
12:39PM 42.0740 -75.9330 299° West 468 539 33,500 900 Climbing FlightAware
12:40PM 42.1160 -76.0350 299° West 465 535 34,000 360 Climbing FlightAware
12:40PM 42.1550 -76.1340 298° West 459 528 34,000  Level FlightAware
12:41PM 42.1930 -76.2480 294° West 453 521 34,000  Level FlightAware
12:42PM 42.2290 -76.3590 294° West 455 524 34,000  Level FlightAware
12:42PM 42.2630 -76.4660 293° West 456 525 34,000  Level FlightAware
12:43PM 42.2980 -76.5750 293° West 455 524 34,000  Level FlightAware
12:44PM 42.3360 -76.6960 293° West 453 521 34,000  Level FlightAware
12:45PM 42.3700 -76.8030 293° West 449 517 34,000  Level FlightAware
12:45PM 42.4020 -76.9050 293° West 446 513 34,000  Level FlightAware
12:46PM 42.4370 -77.0180 293° West 438 504 34,000  Level FlightAware
12:47PM 42.4690 -77.1200 293° West 430 495 34,000  Level FlightAware
12:47PM 42.5010 -77.2230 293° West 424 488 34,000  Level FlightAware
12:48PM 42.5330 -77.3280 292° West 425 489 34,000  Level FlightAware
12:49PM 42.5620 -77.4240 292° West 422 486 34,000  Level FlightAware
12:49PM 42.5970 -77.5350 293° West 417 480 34,000  Level FlightAware
12:50PM 42.6250 -77.6280 292° West 415 478 34,000  Level FlightAware
12:51PM 42.6590 -77.7390 293° West 415 478 34,000  Level FlightAware
12:52PM 42.6860 -77.8300 292° West 418 481 34,000  Level FlightAware
12:52PM 42.7170 -77.9340 292° West 421 484 34,000  Level FlightAware
12:53PM 42.7510 -78.0450 293° West 422 486 34,000  Level FlightAware
12:54PM 42.7800 -78.1420 292° West 423 487 34,000  Level FlightAware
12:54PM 42.8090 -78.2410 292° West 421 484 34,000  Level FlightAware
12:55PM 42.8420 -78.3500 292° West 416 479 34,000  Level FlightAware
12:56PM 42.8700 -78.4460 292° West 407 468 34,000  Level FlightAware
12:56PM 42.9000 -78.5480 292° West 400 460 34,000  Level FlightAware
12:57PM 42.9260 -78.6440 290° West 396 456 34,000  Level FlightAware
12:58PM 42.9350 -78.7460 277° West 396 456 34,000  Level FlightAware
12:59PM 42.9410 -78.8580 274° West 393 452 34,000  Level FlightAware
12:59PM 42.9450 -78.9540 273° West 390 449 34,000  Level FlightAware
01:00PM 42.9510 -79.0650 274° West 390 449 34,000  Level FlightAware
01:01PM 42.9560 -79.1640 274° West 390 449 34,000  Level FlightAware
01:01PM 42.9610 -79.2630 274° West 392 451 34,000  Level FlightAware
01:02PM 42.9660 -79.3750 274° West 392 451 34,000  Level FlightAware
01:03PM 42.9710 -79.4730 274° West 393 452 34,000  Level FlightAware
01:03PM 42.9760 -79.5800 274° West 393 452 34,000  Level FlightAware
01:04PM 42.9810 -79.6820 274° West 395 455 34,000  Level FlightAware
01:05PM 42.9850 -79.7820 273° West 393 452 34,000  Level FlightAware
01:06PM 42.9900 -79.8930 274° West 392 451 34,000  Level FlightAware
01:06PM 42.9940 -79.9910 273° West 394 453 34,000  Level FlightAware
01:07PM 42.9980 -80.0930 273° West 394 453 34,000  Level FlightAware
01:08PM 43.0030 -80.2010 274° West 393 452 34,000  Level FlightAware
01:08PM 43.0070 -80.3010 273° West 391 450 34,000  Level FlightAware
01:09PM 43.0110 -80.4100 273° West 387 445 34,000  Level FlightAware
01:10PM 43.0150 -80.5100 273° West 385 443 34,000  Level FlightAware
01:10PM 43.0190 -80.6050 273° West 385 443 34,000  Level FlightAware
01:11PM 43.0230 -80.7160 273° West 386 444 34,000  Level FlightAware
01:12PM 43.0270 -80.8140 273° West 389 448 34,000  Level FlightAware
01:13PM 43.0300 -80.9230 272° West 390 449 34,000  Level FlightAware
01:13PM 43.0340 -81.0220 273° West 386 444 34,000  Level FlightAware
01:14PM 43.0380 -81.1300 273° West 378 435 34,000  Level FlightAware
01:15PM 43.0490 -81.2230 279° West 371 427 34,000  Level FlightAware
01:15PM 43.0610 -81.3100 281° West 367 422 34,000  Level FlightAware
01:16PM 43.0770 -81.4160 282° West 361 415 34,000  Level FlightAware
01:17PM 43.0890 -81.5020 281° West 357 411 34,000  Level FlightAware
01:17PM 43.1030 -81.6000 281° West 353 406 34,000  Level FlightAware
01:18PM 43.1160 -81.6880 281° West 351 404 34,000  Level FlightAware
01:19PM 43.1270 -81.7710 280° West 349 402 34,000  Level FlightAware
01:20PM 43.1430 -81.8810 281° West 350 403 34,000  Level FlightAware
01:20PM 43.1550 -81.9730 280° West 350 403 34,000  Level FlightAware
01:21PM 43.1670 -82.0610 281° West 350 403 34,000  Level FlightAware
01:22PM 43.1810 -82.1590 281° West 351 404 34,000  Level FlightAware
01:22PM 43.1920 -82.2420 280° West 351 404 34,000  Level FlightAware
01:23PM 43.2050 -82.3370 281° West 351 404 34,000  Level FlightAware
01:24PM 43.2180 -82.4310 281° West 350 403 34,000  Level FlightAware
01:24PM 43.2310 -82.5290 280° West 350 403 34,000  Level FlightAware
01:25PM 43.2380 -82.5860 280° West 350 403 34,000  Level FlightAware
01:26PM 43.2510 -82.6810 281° West 350 403 34,000  Level FlightAware
01:26PM 43.2720 -82.7810 286° West 352 405 34,000  Level FlightAware
01:27PM 43.2910 -82.8500 291° West 351 404 34,000  Level FlightAware
01:28PM 43.3190 -82.9540 290° West 351 404 34,000  Level FlightAware
01:29PM 43.3470 -83.0610 290° West 348 400 34,000  Level FlightAware
01:30PM 43.3760 -83.1740 289° West 349 402 34,000  Level FlightAware
01:30PM 43.4000 -83.2650 290° West 349 402 34,000  Level FlightAware
01:31PM 43.4230 -83.3530 290° West 350 403 34,000  Level FlightAware
01:32PM 43.4450 -83.4370 290° West 349 402 34,000  Level FlightAware
01:33PM 43.4750 -83.5530 290° West 349 402 34,000  Level FlightAware
01:33PM 43.4990 -83.6460 290° West 348 400 34,000  Level FlightAware
01:34PM 43.5190 -83.7260 289° West 349 402 34,000  Level FlightAware
01:35PM 43.5440 -83.8230 290° West 350 403 34,000  Level FlightAware
01:35PM 43.5680 -83.9160 290° West 351 404 34,000  Level FlightAware
01:36PM 43.5900 -84.0030 289° West 351 404 34,000  Level FlightAware
01:37PM 43.6100 -84.0840 289° West 351 404 34,000  Level FlightAware
01:38PM 43.6340 -84.1800 289° West 352 405 34,000  Level FlightAware
01:38PM 43.6560 -84.2650 290° West 353 406 34,000  Level FlightAware
01:39PM 43.6770 -84.3510 289° West 354 407 34,000  Level FlightAware
01:40PM 43.6990 -84.4420 289° West 353 406 34,000  Level FlightAware
01:40PM 43.7220 -84.5320 290° West 353 406 34,000  Level FlightAware
01:41PM 43.7430 -84.6190 289° West 353 406 34,000  Level FlightAware
01:42PM 43.7670 -84.7160 289° West 354 407 34,000  Level FlightAware
01:42PM 43.7880 -84.8030 289° West 354 407 34,000  Level FlightAware
01:43PM 43.8110 -84.8960 289° West 355 409 34,000  Level FlightAware
01:44PM 43.8320 -84.9830 289° West 357 411 34,000  Level FlightAware
01:45PM 43.8550 -85.0790 288° West 358 412 34,000  Level FlightAware
01:45PM 43.8760 -85.1650 289° West 358 412 34,000  Level FlightAware
01:46PM 43.8980 -85.2560 289° West 358 412 34,000  Level FlightAware
01:47PM 43.9210 -85.3520 288° West 358 412 34,000  Level FlightAware
01:47PM 43.9420 -85.4400 288° West 358 412 34,000  Level FlightAware
01:48PM 43.9650 -85.5400 288° West 358 412 34,000  Level FlightAware
01:49PM 43.9850 -85.6230 289° West 358 412 34,000  Level FlightAware
01:49PM 44.0060 -85.7140 288° West 359 413 34,000  Level FlightAware
01:50PM 44.0290 -85.8120 288° West 358 412 34,000  Level FlightAware
01:51PM 44.0490 -85.8960 288° West 359 413 34,000  Level FlightAware
01:52PM 44.0720 -85.9970 288° West 361 415 34,000  Level FlightAware
01:52PM 44.0920 -86.0850 288° West 362 417 34,000 420 Level FlightAware
01:53PM 44.1130 -86.1740 288° West 362 417 34,600 960 Climbing FlightAware
01:54PM 44.1350 -86.2720 287° West 357 411 35,400 960 Climbing FlightAware
01:54PM 44.1550 -86.3560 288° West 348 400 36,000 420 Climbing FlightAware
01:55PM 44.1740 -86.4410 287° West 339 390 36,000  Level FlightAware
01:56PM 44.1950 -86.5370 287° West 340 391 36,000  Level FlightAware
01:56PM 44.2140 -86.6190 288° West 343 395 36,000  Level FlightAware
01:57PM 44.2360 -86.7170 287° West 345 397 36,000  Level FlightAware
01:58PM 44.2550 -86.8020 287° West 347 399 36,000  Level FlightAware
01:59PM 44.2750 -86.8920 287° West 347 399 36,000  Level FlightAware
01:59PM 44.2940 -86.9790 287° West 348 400 36,000  Level FlightAware
02:00PM 44.3160 -87.0770 287° West 350 403 36,000  Level FlightAware
02:01PM 44.3350 -87.1650 287° West 350 403 36,000  Level FlightAware
02:01PM 44.3530 -87.2480 287° West 350 403 36,000  Level FlightAware
02:02PM 44.3750 -87.3470 287° West 348 400 36,000  Level FlightAware
02:03PM 44.3900 -87.4190 286° West 350 403 36,000  Level FlightAware
02:03PM 44.4080 -87.5060 286° West 350 403 36,000  Level FlightAware
02:04PM 44.4330 -87.6160 288° West 350 403 36,000  Level FlightAware
02:05PM 44.4490 -87.6920 286° West 350 403 36,000  Level FlightAware
02:06PM 44.4720 -87.8020 286° West 350 403 36,000  Level FlightAware
02:06PM 44.4910 -87.8880 287° West 351 404 36,000  Level FlightAware
02:07PM 44.5080 -87.9710 286° West 353 406 36,000  Level FlightAware
02:08PM 44.5300 -88.0730 287° West 355 409 36,000  Level FlightAware
02:08PM 44.5480 -88.1620 286° West 356 410 36,000  Level FlightAware
02:09PM 44.5570 -88.2410 279° West 348 400 36,000  Level FlightAware
02:10PM 44.5610 -88.3540 273° West 349 402 36,000  Level FlightAware
02:10PM 44.5640 -88.4440 273° West 350 403 36,000  Level FlightAware
02:11PM 44.5660 -88.5370 272° West 350 403 36,000  Level FlightAware
02:12PM 44.5680 -88.6140 272° West 350 403 36,000  Level FlightAware
02:13PM 44.5740 -88.7480 274° West 352 405 36,000  Level FlightAware
02:13PM 44.5780 -88.8540 273° West 354 407 36,000  Level FlightAware
02:14PM 44.5810 -88.9580 272° West 354 407 36,000  Level FlightAware
02:15PM 44.5840 -89.0480 273° West 354 407 36,000  Level FlightAware
02:16PM 44.5870 -89.1520 272° West 355 409 36,000  Level FlightAware
02:16PM 44.5890 -89.2440 272° West 355 409 36,000  Level FlightAware
02:17PM 44.5920 -89.3350 273° West 355 409 36,000  Level FlightAware
02:18PM 44.5950 -89.4400 272° West 355 409 36,000  Level FlightAware
02:18PM 44.5970 -89.5310 272° West 355 409 36,000  Level FlightAware
02:19PM 44.5990 -89.6290 272° West 355 409 36,000  Level FlightAware
02:20PM 44.6020 -89.7250 273° West 355 409 36,000  Level FlightAware
02:20PM 44.6040 -89.8270 272° West 355 409 36,000  Level FlightAware
02:21PM 44.6060 -89.9200 272° West 354 407 36,000  Level FlightAware
02:22PM 44.6080 -90.0420 271° West 354 407 36,000  Level FlightAware
02:23PM 44.6110 -90.1520 272° West 356 410 36,000  Level FlightAware
02:23PM 44.6130 -90.2440 272° West 358 412 36,000  Level FlightAware
02:24PM 44.6150 -90.3470 272° West 360 414 36,000  Level FlightAware
02:25PM 44.6160 -90.4440 271° West 363 418 36,000 300 Level FlightAware
02:26PM 44.6180 -90.5390 272° West 367 422 36,400 540 Climbing FlightAware
02:26PM 44.6200 -90.6430 272° West 370 426 36,800 600 Climbing FlightAware
02:27PM 44.6210 -90.7280 271° West 371 427 37,200 720 Climbing FlightAware
02:28PM 44.6110 -90.8320 262° West 363 418 37,800 480 Climbing FlightAware
02:28PM 44.5870 -90.9340 252° West 364 419 38,000 120 Climbing FlightAware
02:29PM 44.5640 -91.0220 250° West 362 417 38,000  Level FlightAware
02:30PM 44.5380 -91.1240 250° West 365 420 38,000  Level FlightAware
02:30PM 44.5150 -91.2100 249° West 367 422 38,000  Level FlightAware
02:31PM 44.4910 -91.3010 250° West 367 422 38,000  Level FlightAware
02:32PM 44.4660 -91.3930 249° West 368 423 38,000  Level FlightAware
02:33PM 44.4390 -91.4990 250° West 368 423 38,000  Level FlightAware
02:33PM 44.4140 -91.5930 250° West 370 426 38,000  Level FlightAware
02:34PM 44.3950 -91.6650 250° West 369 425 38,000  Level FlightAware
02:35PM 44.3640 -91.7810 250° West 370 426 38,000  Level FlightAware
02:35PM 44.3400 -91.8680 249° West 370 426 38,000  Level FlightAware
02:36PM 44.3140 -91.9680 250° West 370 426 38,000  Level FlightAware
02:37PM 44.2800 -92.0900 249° West 371 427 38,000  Level FlightAware
02:38PM 44.2590 -92.1690 250° West 371 427 38,000  Level FlightAware
02:38PM 44.2450 -92.2200 249° West 38,000  Level FlightAware
02:40PM 44.1880 -92.4270 249° West 368 423 38,000  Level FlightAware
02:40PM 44.1610 -92.5250 249° West 367 422 38,000  Level FlightAware
02:41PM 44.1400 -92.6030 249° West 366 421 38,000  Level FlightAware
02:42PM 44.1130 -92.6980 248° West 366 421 38,000  Level FlightAware
02:42PM 44.0870 -92.7910 249° West 366 421 38,000  Level FlightAware
02:43PM 44.0620 -92.8780 248° West 366 421 38,000  Level FlightAware
02:44PM 44.0410 -92.9520 248° West 366 421 38,000  Level FlightAware
02:44PM 44.0190 -93.0260 248° West 366 421 38,000  Level FlightAware
02:45PM 43.9920 -93.1190 248° West 366 421 38,000  Level FlightAware
02:46PM 43.9710 -93.1930 249° West 366 421 38,000  Level FlightAware
02:47PM 43.9490 -93.2670 248° West 366 421 38,000  Level FlightAware
02:47PM 43.9280 -93.3410 249° West 366 421 38,000  Level FlightAware
02:48PM 43.9060 -93.4150 248° West 366 421 38,000  Level FlightAware
02:49PM 43.8840 -93.4900 248° West 366 421 38,000  Level FlightAware
02:49PM 43.8570 -93.5820 248° West 366 421 38,000  Level FlightAware
02:50PM 43.8360 -93.6560 249° West 366 421 38,000  Level FlightAware
02:51PM 43.8140 -93.7300 248° West 366 421 38,000  Level FlightAware
02:51PM 43.7930 -93.8040 249° West 366 421 38,000  Level FlightAware
02:52PM 43.7660 -93.8960 248° West 366 421 38,000  Level FlightAware
02:53PM 43.6900 -94.1850 248° West 374 430 38,000  Level Minneapolis Center
02:54PM 43.5992 -94.3089 225° Southwest 373 429 38,000  Level Minneapolis Center
02:55PM 43.5244 -94.4103 225° Southwest 375 432 38,000  Level Minneapolis Center
02:56PM 43.4508 -94.5133 225° Southwest 376 433 38,000  Level Minneapolis Center
02:57PM 43.3772 -94.6161 225° Southwest 377 434 38,000  Level Minneapolis Center
02:58PM 43.3039 -94.7169 225° Southwest 376 433 38,000  Level Minneapolis Center
02:59PM 43.2311 -94.8189 226° Southwest 374 430 38,000  Level Minneapolis Center
03:00PM 43.1447 -94.9392 225° Southwest 371 427 38,000  Level Minneapolis Center
03:01PM 43.0742 -95.0372 225° Southwest 365 420 38,000  Level Minneapolis Center
03:02PM 42.9914 -95.1586 227° Southwest 364 419 38,000  Level Minneapolis Center
03:04PM 42.9503 -95.2794 245° Southwest 353 406 38,000  Level Minneapolis Center
03:05PM 42.9147 -95.4067 249° West 357 411 38,000  Level Minneapolis Center
03:06PM 42.8786 -95.5311 248° West 355 409 38,000  Level Minneapolis Center
03:07PM 42.8428 -95.6569 249° West 355 409 38,000  Level Minneapolis Center
03:08PM 42.8058 -95.7825 248° West 357 411 38,000  Level Minneapolis Center
03:09PM 42.7700 -95.9106 249° West 361 415 38,000  Level Minneapolis Center
03:10PM 42.7247 -96.0628 248° West 362 417 38,000  Level Minneapolis Center
03:11PM 42.6897 -96.1864 249° West 364 419 38,000  Level Minneapolis Center
03:12PM 42.6517 -96.3142 248° West 366 421 38,000  Level Minneapolis Center
03:13PM 42.6125 -96.4428 248° West 370 426 38,000  Level Minneapolis Center
03:14PM 42.5739 -96.5736 248° West 373 429 38,000  Level Minneapolis Center
03:15PM 42.5358 -96.7025 248° West 371 427 38,000  Level Minneapolis Center
03:16PM 42.4892 -96.8586 248° West 373 429 38,000  Level Minneapolis Center
03:17PM 42.4494 -96.9889 248° West 375 432 38,000  Level Minneapolis Center
03:18PM 42.4094 -97.1194 248° West 376 433 38,000  Level Minneapolis Center
03:19PM 42.3694 -97.2500 248° West 377 434 38,000  Level Minneapolis Center
03:20PM 42.3297 -97.3792 247° West 375 432 38,000  Level Minneapolis Center
03:21PM 42.2883 -97.5103 247° West 378 435 38,000  Level Minneapolis Center
03:22PM 42.2497 -97.6394 248° West 374 430 38,000  Level Minneapolis Center
03:23PM 42.2006 -97.7944 247° West 374 430 38,000  Level Minneapolis Center
03:24PM 42.1608 -97.9169 246° West 372 428 38,000  Level Minneapolis Center
03:25PM 42.1206 -98.0467 247° West 374 430 38,000  Level Minneapolis Center
03:26PM 42.0800 -98.1742 247° West 372 428 38,000  Level Minneapolis Center
03:27PM 42.0386 -98.3003 246° West 370 426 38,000  Level Minneapolis Center
03:28PM 41.9978 -98.4278 247° West 371 427 38,000  Level Minneapolis Center
03:29PM 41.9489 -98.5783 246° West 368 423 38,000  Level Minneapolis Center
03:30PM 41.9081 -98.7042 246° West 367 422 38,000  Level Minneapolis Center
03:31PM 41.8678 -98.8306 247° West 368 423 38,000  Level Minneapolis Center
03:32PM 41.8250 -98.9558 245° Southwest 370 426 38,000  Level Minneapolis Center
03:33PM 41.7847 -99.0811 247° West 369 425 38,000  Level Minneapolis Center
03:34PM 41.7428 -99.2078 246° West 370 426 38,000  Level Minneapolis Center
03:35PM 41.7006 -99.3342 246° West 373 429 38,000  Level Minneapolis Center
03:36PM 41.6497 -99.4869 246° West 375 432 38,000  Level Minneapolis Center
03:37PM 41.6072 -99.6128 246° West 374 430 38,000  Level Minneapolis Center
03:38PM 41.5650 -99.7408 246° West 376 433 38,000  Level Minneapolis Center
03:40PM 41.5147 -99.8858 245° Southwest 378 435 38,000  Level Denver Center
03:41PM 41.4650 -100.0281 245° Southwest 379 436 38,000  Level Denver Center
03:42PM 41.4231 -100.1506 245° Southwest 380 437 38,000  Level Denver Center
03:43PM 41.3744 -100.2933 246° West 381 438 38,000  Level Denver Center
03:44PM 41.3328 -100.4153 246° West 379 436 38,000  Level Denver Center
03:50PM 41.0706 -101.1590 246° West 380 437 38,000  Level FlightAware ADS-B
03:50PM 41.0478 -101.2230 245° Southwest 382 440 38,000  Level FlightAware ADS-B
03:51PM 41.0249 -101.2870 245° Southwest 382 440 38,000  Level FlightAware ADS-B
03:51PM 41.0019 -101.3510 245° Southwest 382 440 38,000  Level FlightAware ADS-B
03:52PM 40.9785 -101.4160 245° Southwest 382 440 38,000  Level FlightAware ADS-B
03:52PM 40.9550 -101.4810 244° Southwest 383 441 38,000  Level FlightAware ADS-B
03:53PM 40.9313 -101.5470 245° Southwest 384 442 38,000  Level FlightAware ADS-B
03:53PM 40.9070 -101.6140 244° Southwest 385 443 38,000  Level FlightAware ADS-B
03:54PM 40.8834 -101.6790 244° Southwest 385 443 38,000  Level FlightAware ADS-B
03:54PM 40.8600 -101.7430 244° Southwest 385 443 38,000  Level FlightAware ADS-B
03:55PM 40.8369 -101.8070 245° Southwest 386 444 38,000  Level FlightAware ADS-B
03:55PM 40.8133 -101.8720 244° Southwest 387 445 38,000  Level FlightAware ADS-B
03:56PM 40.7900 -101.9350 244° Southwest 388 447 38,000  Level FlightAware ADS-B
03:56PM 40.7664 -102.0000 244° Southwest 389 448 38,000  Level FlightAware ADS-B
03:57PM 40.7427 -102.0640 244° Southwest 389 448 38,000  Level FlightAware ADS-B
03:57PM 40.7185 -102.1300 244° Southwest 389 448 38,000  Level FlightAware ADS-B
03:58PM 40.6921 -102.2010 244° Southwest 389 448 38,000  Level FlightAware ADS-B
03:58PM 40.6680 -102.2660 244° Southwest 390 449 38,000  Level FlightAware ADS-B
03:59PM 40.6443 -102.3310 244° Southwest 390 449 38,000  Level FlightAware ADS-B
03:59PM 40.6202 -102.3950 244° Southwest 390 449 38,000  Level FlightAware ADS-B
04:00PM 40.5964 -102.4590 244° Southwest 391 450 38,000  Level FlightAware ADS-B
04:00PM 40.5724 -102.5240 244° Southwest 391 450 38,000  Level FlightAware ADS-B
04:01PM 40.5484 -102.5880 244° Southwest 390 449 38,000  Level FlightAware ADS-B
04:01PM 40.5241 -102.6530 244° Southwest 391 450 38,000  Level FlightAware ADS-B
04:02PM 40.5000 -102.7170 244° Southwest 390 449 38,000  Level FlightAware ADS-B
04:02PM 40.4757 -102.7810 243° Southwest 390 449 38,000  Level FlightAware ADS-B
04:03PM 40.4517 -102.8450 244° Southwest 391 450 38,000  Level FlightAware ADS-B
04:03PM 40.4266 -102.9110 243° Southwest 390 449 38,000  Level FlightAware ADS-B
04:04PM 40.4023 -102.9750 244° Southwest 391 450 38,000  Level FlightAware ADS-B
04:04PM 40.3771 -103.0420 244° Southwest 392 451 38,000  Level FlightAware ADS-B
04:05PM 40.3527 -103.1060 243° Southwest 391 450 38,000  Level FlightAware ADS-B
04:05PM 40.3285 -103.1690 243° Southwest 392 451 38,000  Level FlightAware ADS-B
04:06PM 40.3037 -103.2340 243° Southwest 393 452 38,000  Level FlightAware ADS-B
04:06PM 40.2789 -103.2990 243° Southwest 393 452 38,000  Level FlightAware ADS-B
04:07PM 40.2540 -103.3630 243° Southwest 394 453 38,000  Level FlightAware ADS-B
04:07PM 40.2294 -103.4270 243° Southwest 394 453 38,000  Level FlightAware ADS-B
04:08PM 40.2047 -103.4910 243° Southwest 392 451 38,000  Level FlightAware ADS-B
04:08PM 40.1803 -103.5540 243° Southwest 392 451 38,000  Level FlightAware ADS-B
04:09PM 40.1543 -103.6210 243° Southwest 390 449 38,000  Level FlightAware ADS-B
04:09PM 40.1298 -103.6840 243° Southwest 390 449 38,000  Level FlightAware ADS-B
04:10PM 40.1049 -103.7480 243° Southwest 389 448 38,000  Level FlightAware ADS-B
04:10PM 40.0806 -103.8110 243° Southwest 389 448 38,000  Level FlightAware ADS-B
04:11PM 40.0560 -103.8740 243° Southwest 389 448 38,000  Level FlightAware ADS-B
04:11PM 40.0311 -103.9370 243° Southwest 389 448 38,000  Level FlightAware ADS-B
04:12PM 40.0065 -104.0000 243° Southwest 389 448 38,000  Level FlightAware ADS-B
04:12PM 39.9816 -104.0630 243° Southwest 389 448 38,000  Level FlightAware ADS-B
04:13PM 39.9566 -104.1270 243° Southwest 390 449 38,000  Level FlightAware ADS-B
04:13PM 39.9305 -104.1930 243° Southwest 391 450 38,000  Level FlightAware ADS-B
04:14PM 39.9053 -104.2560 242° Southwest 390 449 38,000  Level FlightAware ADS-B
04:14PM 39.8805 -104.3190 243° Southwest 390 449 38,000  Level FlightAware ADS-B
04:15PM 39.8554 -104.3820 243° Southwest 391 450 38,000  Level FlightAware ADS-B
04:15PM 39.8304 -104.4450 243° Southwest 390 449 38,000  Level FlightAware ADS-B
04:16PM 39.8052 -104.5080 243° Southwest 391 450 38,000  Level FlightAware ADS-B
04:17PM 39.7795 -104.5720 242° Southwest 391 450 38,000  Level FlightAware ADS-B
04:17PM 39.7537 -104.6370 243° Southwest 391 450 38,000  Level FlightAware ADS-B
04:18PM 39.7284 -104.7000 242° Southwest 390 449 38,000  Level FlightAware ADS-B
04:18PM 39.7034 -104.7620 242° Southwest 390 449 38,000  Level FlightAware ADS-B
04:19PM 39.6781 -104.8240 242° Southwest 390 449 38,000  Level FlightAware ADS-B
04:19PM 39.6500 -104.8940 242° Southwest 388 447 38,000  Level FlightAware ADS-B
04:20PM 39.6247 -104.9560 242° Southwest 386 444 38,000  Level FlightAware ADS-B
04:20PM 39.5968 -105.0250 242° Southwest 386 444 38,000  Level FlightAware ADS-B
04:21PM 39.5705 -105.0900 242° Southwest 386 444 38,000  Level FlightAware ADS-B
04:21PM 39.5372 -105.1710 242° Southwest 384 442 38,000  Level FlightAware ADS-B
04:22PM 39.5103 -105.2370 242° Southwest 388 447 38,000  Level FlightAware ADS-B
04:22PM 39.4846 -105.3000 242° Southwest 387 445 38,000  Level FlightAware ADS-B
04:23PM 39.4589 -105.3620 242° Southwest 391 450 38,000  Level FlightAware ADS-B
04:23PM 39.4331 -105.4250 242° Southwest 391 450 38,000  Level FlightAware ADS-B
04:24PM 39.4075 -105.4870 242° Southwest 390 449 38,000  Level FlightAware ADS-B
04:24PM 39.3806 -105.5520 242° Southwest 388 447 38,000  Level FlightAware ADS-B
04:25PM 39.3543 -105.6160 242° Southwest 387 445 38,000  Level FlightAware ADS-B
04:25PM 39.3291 -105.6770 242° Southwest 389 448 38,000  Level FlightAware ADS-B
04:26PM 39.3024 -105.7410 242° Southwest 389 448 38,000  Level FlightAware ADS-B
04:27PM 39.2760 -105.8040 242° Southwest 389 448 38,000  Level FlightAware
04:27PM 39.2679 -105.8240 242° Southwest 391 450 38,000  Level FlightAware ADS-B
04:27PM 39.2420 -105.8860 242° Southwest 389 448 38,000  Level FlightAware ADS-B
04:28PM 39.2162 -105.9470 241° Southwest 391 450 38,000  Level FlightAware ADS-B
04:28PM 39.1900 -106.0100 242° Southwest 394 453 38,000  Level FlightAware ADS-B
04:29PM 39.1634 -106.0730 241° Southwest 392 451 38,000  Level FlightAware ADS-B
04:29PM 39.1368 -106.1360 241° Southwest 390 449 38,000  Level FlightAware ADS-B
04:30PM 39.1108 -106.1980 242° Southwest 393 452 38,000  Level FlightAware ADS-B
04:30PM 39.0840 -106.2610 241° Southwest 396 456 38,000  Level FlightAware ADS-B
04:31PM 39.0570 -106.3250 242° Southwest 397 457 38,000  Level FlightAware ADS-B
04:31PM 39.0287 -106.3920 241° Southwest 394 453 38,000  Level FlightAware ADS-B
04:32PM 39.0024 -106.4540 241° Southwest 395 455 38,000  Level FlightAware ADS-B
04:32PM 38.9756 -106.5170 241° Southwest 396 456 38,000  Level FlightAware ADS-B
04:33PM 38.9489 -106.5790 241° Southwest 398 458 38,000  Level FlightAware ADS-B
04:33PM 38.9221 -106.6420 241° Southwest 398 458 38,000  Level FlightAware ADS-B
04:35PM 38.8493 -106.8110 241° Southwest 397 457 38,000  Level FlightAware ADS-B
04:35PM 38.8228 -106.8720 241° Southwest 395 455 38,000  Level FlightAware ADS-B
04:36PM 38.7962 -106.9340 241° Southwest 393 452 38,000  Level FlightAware ADS-B
04:36PM 38.7700 -106.9950 241° Southwest 391 450 38,000  Level FlightAware ADS-B
04:37PM 38.7594 -107.0189 241° Southwest 391 450 38,000  Level Denver Center
04:38PM 38.7064 -107.1392 241° Southwest 386 444 38,000  Level Denver Center
04:39PM 38.6481 -107.2739 241° Southwest 388 447 38,000  Level Denver Center
04:40PM 38.5964 -107.3906 240° Southwest 392 451 38,000  Level Denver Center
04:41PM 38.5364 -107.5269 241° Southwest 396 456 38,000  Level Denver Center
04:42PM 38.4833 -107.6486 241° Southwest 404 465 38,000  Level Denver Center
04:43PM 38.4225 -107.7867 241° Southwest 401 461 38,000  Level Denver Center
04:44PM 38.3683 -107.9058 240° Southwest 403 464 38,000 -600 Level Denver Center
04:45PM 38.3067 -108.0428 240° Southwest 399 459 36,800 -1,020 Descending Denver Center
04:46PM 38.2519 -108.1683 241° Southwest 412 474 35,900 -900 Descending Denver Center
04:47PM 38.1978 -108.2875 240° Southwest 409 471 35,000 -960 Descending Denver Center
04:48PM 38.1367 -108.4250 241° Southwest 402 463 34,000 -540 Descending Denver Center
04:49PM 38.0814 -108.5444 240° Southwest 406 467 34,000  Level Denver Center
04:50PM 38.0258 -108.6669 240° Southwest 405 466 34,000  Level Denver Center
04:51PM 37.9625 -108.8044 240° Southwest 405 466 34,000  Level Denver Center
04:52PM 37.9083 -108.9211 240° Southwest 402 463 34,000  Level Denver Center
04:53PM 37.8369 -109.0778 240° Southwest 406 467 34,000  Level Denver Center
04:54PM 37.7656 -109.2328 240° Southwest 402 463 34,000  Level Denver Center
04:55PM 37.7119 -109.3469 239° Southwest 398 458 34,000  Level Denver Center
04:57PM 37.6483 -109.4806 239° Southwest 398 458 34,000  Level Denver Center
04:58PM 37.5969 -109.5917 240° Southwest 388 447 34,000  Level Denver Center
04:59PM 37.5364 -109.7225 240° Southwest 387 445 34,000  Level Denver Center
05:00PM 37.4831 -109.8328 239° Southwest 386 444 34,000  Level Denver Center
05:01PM 37.4225 -109.9625 240° Southwest 387 445 34,000  Level Denver Center
05:02PM 37.3697 -110.0722 239° Southwest 385 443 34,000  Level Denver Center
05:03PM 37.3111 -110.1956 239° Southwest 389 448 34,000  Level Denver Center
05:04PM 37.2550 -110.3119 239° Southwest 391 450 34,000  Level Denver Center
05:05PM 37.1992 -110.4281 239° Southwest 388 447 34,000  Level Denver Center
05:06PM 37.1431 -110.5439 239° Southwest 387 445 34,000  Level Denver Center
05:07PM 37.0872 -110.6581 239° Southwest 385 443 34,000  Level Denver Center
05:08PM 37.0203 -110.7956 239° Southwest 385 443 34,000  Level Denver Center
05:09PM 36.9647 -110.9089 238° Southwest 384 442 34,000  Level Denver Center
05:10PM 36.9086 -111.0222 238° Southwest 382 440 34,000  Level Denver Center
05:11PM 36.8533 -111.1356 239° Southwest 382 440 34,000  Level Denver Center
05:12PM 36.7997 -111.2464 239° Southwest 377 434 34,000  Level Denver Center
05:13PM 36.7425 -111.3600 238° Southwest 381 438 34,000  Level Denver Center
05:14PM 36.6864 -111.4731 238° Southwest 382 440 34,000  Level Denver Center
05:15PM 36.6294 -111.5872 238° Southwest 385 443 34,000 120 Level Denver Center
05:16PM 36.5592 -111.7264 238° Southwest 393 452 34,300 900 Climbing Denver Center
05:17PM 36.5022 -111.8400 238° Southwest 389 448 35,900 240 Climbing Denver Center
05:22PM 36.2040 -112.4310 238° Southwest 382 440 36,000  Climbing FlightAware
05:23PM 36.1720 -112.4930 237° Southwest 381 438 36,000  Level FlightAware
05:24PM 36.1390 -112.5550 237° Southwest 381 438 36,000  Level FlightAware
05:24PM 36.1240 -112.5870 240° Southwest 36,000  Level FlightAware
05:25PM 36.0720 -112.6880 238° Southwest 381 438 36,000  Level FlightAware
05:25PM 36.0320 -112.7650 237° Southwest 381 438 36,000  Level FlightAware
05:26PM 35.9950 -112.8370 238° Southwest 381 438 36,000  Level FlightAware
05:27PM 35.9510 -112.9220 237° Southwest 384 442 36,000  Level FlightAware
05:27PM 35.9120 -112.9960 237° Southwest 386 444 36,000  Level FlightAware
05:28PM 35.8740 -113.0700 238° Southwest 387 445 36,000  Level FlightAware
05:29PM 35.8320 -113.1500 237° Southwest 388 447 36,000  Level FlightAware
05:30PM 35.7920 -113.2260 237° Southwest 389 448 36,000  Level FlightAware
05:30PM 35.7590 -113.3010 242° Southwest 385 443 36,000  Level FlightAware
05:31PM 35.7220 -113.3930 244° Southwest 386 444 36,000  Level FlightAware
05:32PM 35.6890 -113.4720 243° Southwest 388 447 36,000  Level FlightAware
05:32PM 35.6530 -113.5570 242° Southwest 388 447 36,000 -660 Level FlightAware
05:33PM 35.6200 -113.6350 243° Southwest 391 450 35,100 -1,380 Descending FlightAware
05:34PM 35.5860 -113.7170 243° Southwest 396 456 34,200 -780 Descending FlightAware
05:34PM 35.5480 -113.8080 243° Southwest 405 466 34,000 -180 Descending FlightAware
05:35PM 35.5150 -113.8870 243° Southwest 407 468 34,000  Level FlightAware
05:36PM 35.4800 -113.9710 243° Southwest 408 470 34,000  Level FlightAware
05:37PM 35.4420 -114.0640 243° Southwest 410 472 34,000  Level FlightAware
05:37PM 35.4070 -114.1470 243° Southwest 410 472 34,000  Level FlightAware
05:38PM 35.3670 -114.2420 243° Southwest 410 472 34,000  Level FlightAware
05:39PM 35.3320 -114.3240 242° Southwest 410 472 34,000  Level FlightAware
05:39PM 35.2940 -114.4160 243° Southwest 410 472 34,000  Level FlightAware
05:40PM 35.2580 -114.4990 242° Southwest 413 475 34,000  Level FlightAware
05:41PM 35.2240 -114.5810 243° Southwest 413 475 34,000  Level FlightAware
05:41PM 35.1830 -114.6770 242° Southwest 415 478 34,000  Level FlightAware
05:42PM 35.1480 -114.7590 242° Southwest 417 480 34,000  Level FlightAware
05:43PM 35.1080 -114.8510 242° Southwest 418 481 34,000  Level FlightAware
05:44PM 35.0730 -114.9320 242° Southwest 419 482 34,000  Level FlightAware
05:44PM 35.0360 -115.0200 243° Southwest 420 483 34,000  Level FlightAware
05:45PM 34.9950 -115.1150 242° Southwest 422 486 34,000  Level FlightAware
05:46PM 34.9580 -115.1990 242° Southwest 423 487 34,000  Level FlightAware
05:46PM 34.9180 -115.2930 243° Southwest 426 490 34,000  Level FlightAware
05:47PM 34.8800 -115.3790 242° Southwest 426 490 34,000  Level FlightAware
05:48PM 34.8440 -115.4630 242° Southwest 426 490 34,000  Level FlightAware
05:48PM 34.8020 -115.5590 242° Southwest 427 491 34,000  Level FlightAware
05:49PM 34.7640 -115.6450 242° Southwest 428 493 34,000  Level FlightAware
05:50PM 34.7230 -115.7390 242° Southwest 428 493 34,000 -540 Level FlightAware
05:51PM 34.6820 -115.8330 242° Southwest 429 494 33,200 -840 Descending FlightAware
05:51PM 34.6360 -115.9360 242° Southwest 431 496 32,700 -360 Descending FlightAware
05:52PM 34.6030 -116.0080 241° Southwest 431 496 32,700 -1,500 Level FlightAware
05:53PM 34.5540 -116.1200 242° Southwest 436 502 30,600 -2,040 Descending FlightAware
05:54PM 34.5090 -116.2220 242° Southwest 438 504 29,700 -1,200 Descending FlightAware
05:54PM 34.4830 -116.2790 241° Southwest 439 505 29,100 -540 Descending FlightAware
05:55PM 34.4270 -116.4050 242° Southwest 449 517 29,000 -120 Descending FlightAware
05:56PM 34.3880 -116.4910 241° Southwest 445 512 29,000 -120 Level FlightAware
05:56PM 34.3480 -116.5810 242° Southwest 443 510 28,900 -780 Descending FlightAware
05:57PM 34.3050 -116.6770 242° Southwest 417 480 27,900 -2,160 Descending FlightAware
05:58PM 34.2700 -116.7540 241° Southwest 392 451 25,900 -2,760 Descending FlightAware
05:59PM 34.2310 -116.8390 241° Southwest 386 444 24,000 -2,340 Descending FlightAware
05:59PM 34.1970 -116.9140 241° Southwest 381 438 22,600 -2,100 Descending FlightAware
06:00PM 34.1640 -116.9870 241° Southwest 376 433 21,200 -2,160 Descending FlightAware
06:01PM 34.1250 -117.0720 241° Southwest 367 422 19,600 -1,920 Descending FlightAware
06:01PM 34.0930 -117.1420 241° Southwest 355 409 18,500 -1,440 Descending FlightAware
06:02PM 34.0600 -117.2150 241° Southwest 327 376 17,600 -1,680 Descending FlightAware
06:03PM 34.0440 -117.2840 254° West 324 373 16,200 -2,100 Descending FlightAware
06:03PM 34.0380 -117.3570 264° West 324 373 14,800 -1,920 Descending FlightAware
06:04PM 34.0300 -117.4380 263° West 316 364 13,500 -1,560 Descending FlightAware
06:05PM 34.0310 -117.5070 271° West 309 356 12,600 -1,380 Descending FlightAware
06:05PM 34.0340 -117.5610 274° West 306 352 11,800 -1,500 Descending FlightAware
06:06PM 34.0270 -117.6500 265° West 303 349 10,500 -1,380 Descending FlightAware
06:07PM 34.0220 -117.6980 263° West 301 346 10,000 -960 Descending FlightAware
06:07PM 34.0190 -117.7250 262° West 289 333 9,800 -780 Descending FlightAware
06:07PM 34.0160 -117.7630 265° West 269 310 9,500 -840 Descending FlightAware
06:08PM 34.0120 -117.8000 263° West 249 287 9,100 -1,320 Descending FlightAware
06:08PM 34.0080 -117.8400 263° West 245 282 8,300 -1,440 Descending FlightAware
06:09PM 34.0040 -117.8810 263° West 235 270 7,700 -1,020 Descending FlightAware
06:09PM 34.0010 -117.9110 263° West 214 246 7,400 -780 Descending FlightAware
06:09PM 33.9990 -117.9290 262° West 209 241 7,200 -960 Descending FlightAware
06:10PM 33.9930 -117.9620 258° West 207 238 6,700 -1,140 Descending FlightAware
06:10PM 33.9900 -117.9900 263° West 211 243 6,200 -1,140 Descending FlightAware
06:11PM 33.9870 -118.0260 264° West 213 245 5,700 -900 Descending FlightAware
06:11PM 33.9850 -118.0560 265° West 211 243 5,400 -780 Descending FlightAware
06:12PM 33.9830 -118.0920 266° West 208 239 5,000 -840 Descending FlightAware
06:12PM 33.9800 -118.1270 264° West 212 244 4,600 -1,020 Descending FlightAware
06:13PM 33.9770 -118.1550 263° West 216 249 4,100 -1,200 Descending FlightAware
06:13PM 33.9730 -118.1910 262° West 220 253 3,500 -1,140 Descending FlightAware
06:14PM 33.9700 -118.2260 264° West 222 255 3,000 -1,140 Descending FlightAware
06:14PM 33.9670 -118.2590 264° West 216 249 2,500 -1,080 Descending FlightAware
06:15PM 33.9640 -118.2830 261° West 205 236 2,100 -900 Descending FlightAware
06:15PM 33.9620 -118.3060 264° West 184 212 1,700 -840 Descending FlightAware
06:16PM 33.9590 -118.3340 263° West 152 175 1,300 -780 Descending FlightAware
06:16PM 33.9570 -118.3540 263° West 143 165 1,000 -780 Descending FlightAware
06:16PM 33.9550 -118.3770 264° West 133 153 600 -720 Descending FlightAware
06:17PM 33.9530 -118.3960 263° West 128 147 300 -420 Descending FlightAware
06:18PM 33.9500 -118.4170 260° West 126 145 200 -180 Descending FlightAware